createdAt,value
2022-12-22T00:00:55.251Z,14.70
2022-12-22T00:01:55.398Z,14.60
2022-12-22T00:02:55.314Z,14.60
2022-12-22T00:03:56.367Z,15.40
2022-12-22T00:04:55.227Z,14.10
2022-12-22T00:05:55.247Z,15.60
2022-12-22T00:06:55.213Z,15.70
2022-12-22T00:07:55.219Z,15.10
2022-12-22T00:08:57.902Z,14.90
2022-12-22T00:09:56.204Z,16.00
2022-12-22T00:10:55.221Z,15.80
2022-12-22T00:11:55.175Z,14.70
2022-12-22T00:12:55.261Z,15.10
2022-12-22T00:13:55.180Z,15.00
2022-12-22T00:14:55.192Z,15.10
2022-12-22T00:15:55.176Z,14.90
2022-12-22T00:16:55.202Z,14.50
2022-12-22T00:17:55.268Z,14.00
2022-12-22T00:18:55.129Z,14.80
2022-12-22T00:19:55.136Z,13.70
2022-12-22T00:20:55.155Z,13.90
2022-12-22T00:21:55.170Z,14.90
2022-12-22T00:22:55.169Z,14.50
2022-12-22T00:23:56.129Z,14.60
2022-12-22T00:24:55.107Z,14.10
2022-12-22T00:25:55.127Z,14.60
2022-12-22T00:26:55.123Z,15.30
2022-12-22T00:27:55.105Z,13.60
2022-12-22T00:28:55.137Z,12.90
2022-12-22T00:29:55.094Z,13.30
2022-12-22T00:30:55.214Z,13.10
2022-12-22T00:31:55.113Z,13.10
2022-12-22T00:32:55.087Z,13.60
2022-12-22T00:33:55.075Z,12.90
2022-12-22T00:34:55.078Z,13.70
2022-12-22T00:35:55.079Z,14.30
2022-12-22T00:36:55.198Z,14.70
2022-12-22T00:37:55.061Z,14.10
2022-12-22T00:38:55.090Z,13.90
2022-12-22T00:39:55.074Z,13.30
2022-12-22T00:40:55.053Z,13.40
2022-12-22T00:41:55.037Z,12.90
2022-12-22T00:42:55.062Z,11.40
2022-12-22T00:43:55.069Z,13.40
2022-12-22T00:44:55.047Z,12.60
2022-12-22T00:45:55.064Z,12.20
2022-12-22T00:46:55.020Z,11.60
2022-12-22T00:47:55.107Z,11.60
2022-12-22T00:48:55.016Z,11.30
2022-12-22T00:49:55.039Z,11.20
2022-12-22T00:50:54.992Z,11.80
2022-12-22T00:51:54.989Z,11.50
2022-12-22T00:52:54.983Z,12.20
2022-12-22T00:53:54.981Z,12.30
2022-12-22T00:54:55.014Z,12.50
2022-12-22T00:55:54.996Z,12.40
2022-12-22T00:56:54.979Z,12.10
2022-12-22T00:57:55.011Z,12.60
2022-12-22T00:58:54.958Z,12.40
2022-12-22T00:59:54.983Z,12.00
2022-12-22T01:00:55.047Z,12.20
2022-12-22T01:01:55.099Z,12.10
2022-12-22T01:02:55.104Z,12.90
2022-12-22T01:03:54.948Z,13.30
2022-12-22T01:04:54.980Z,13.10
2022-12-22T01:05:54.950Z,12.70
2022-12-22T01:06:54.974Z,13.10
2022-12-22T01:07:54.915Z,14.30
2022-12-22T01:08:54.933Z,13.70
2022-12-22T01:09:54.943Z,14.00
2022-12-22T01:10:54.918Z,14.50
2022-12-22T01:11:54.926Z,14.10
2022-12-22T01:12:54.937Z,14.10
2022-12-22T01:13:54.899Z,16.00
2022-12-22T01:14:54.902Z,15.00
2022-12-22T01:15:54.924Z,15.30
2022-12-22T01:16:54.885Z,15.30
2022-12-22T01:17:55.901Z,15.20
2022-12-22T01:18:54.898Z,16.00
2022-12-22T01:19:54.900Z,16.30
2022-12-22T01:20:54.870Z,15.40
2022-12-22T01:21:55.021Z,16.20
2022-12-22T01:22:54.888Z,16.70
2022-12-22T01:23:54.860Z,16.00
2022-12-22T01:24:54.856Z,17.10
2022-12-22T01:25:54.857Z,17.60
2022-12-22T01:26:55.876Z,16.70
2022-12-22T01:27:54.891Z,16.40
2022-12-22T01:28:54.831Z,17.20
2022-12-22T01:29:54.817Z,16.50
2022-12-22T01:30:54.861Z,16.20
2022-12-22T01:31:54.857Z,17.40
2022-12-22T01:32:54.868Z,16.80
2022-12-22T01:33:54.887Z,17.00
2022-12-22T01:34:54.830Z,17.70
2022-12-22T01:35:54.801Z,16.70
2022-12-22T01:36:54.822Z,17.90
2022-12-22T01:37:54.822Z,17.70
2022-12-22T01:38:54.775Z,17.10
2022-12-22T01:39:54.779Z,16.80
2022-12-22T01:40:54.805Z,17.60
2022-12-22T01:41:54.802Z,17.40
2022-12-22T01:42:54.791Z,17.20
2022-12-22T01:43:54.761Z,17.70
2022-12-22T01:44:54.756Z,16.80
2022-12-22T01:45:54.789Z,16.70
2022-12-22T01:46:54.768Z,16.90
2022-12-22T01:47:54.777Z,16.90
2022-12-22T01:48:54.741Z,17.00
2022-12-22T01:49:54.730Z,17.30
2022-12-22T01:50:54.788Z,17.70
2022-12-22T01:51:54.737Z,16.80
2022-12-22T01:52:54.724Z,18.00
2022-12-22T01:53:54.715Z,18.10
2022-12-22T01:54:54.729Z,16.30
2022-12-22T01:55:54.743Z,17.10
2022-12-22T01:56:54.724Z,18.40
2022-12-22T01:57:54.697Z,17.80
2022-12-22T01:58:54.721Z,19.40
2022-12-22T01:59:54.727Z,18.90
2022-12-22T02:00:54.689Z,18.40
2022-12-22T02:01:54.822Z,17.30
2022-12-22T02:02:54.782Z,17.90
2022-12-22T02:03:54.770Z,18.20
2022-12-22T02:04:54.670Z,18.60
2022-12-22T02:05:54.667Z,18.70
2022-12-22T02:06:59.737Z,19.50
2022-12-22T02:07:56.675Z,19.80
2022-12-22T02:08:54.644Z,19.20
2022-12-22T02:09:54.647Z,19.80
2022-12-22T02:10:54.646Z,19.10
2022-12-22T02:11:54.660Z,20.50
2022-12-22T02:12:54.635Z,18.90
2022-12-22T02:13:54.641Z,19.00
2022-12-22T02:14:54.609Z,21.60
2022-12-22T02:15:54.648Z,20.50
2022-12-22T02:16:54.653Z,20.90
2022-12-22T02:17:54.601Z,20.30
2022-12-22T02:18:54.610Z,21.10
2022-12-22T02:19:54.623Z,20.60
2022-12-22T02:20:54.598Z,22.00
2022-12-22T02:21:54.578Z,21.40
2022-12-22T02:22:54.615Z,21.40
2022-12-22T02:23:54.579Z,20.90
2022-12-22T02:24:54.648Z,20.90
2022-12-22T02:25:54.635Z,21.40
2022-12-22T02:26:54.570Z,21.50
2022-12-22T02:27:54.567Z,20.90
2022-12-22T02:28:54.596Z,20.00
2022-12-22T02:29:54.543Z,19.90
2022-12-22T02:30:54.631Z,20.90
2022-12-22T02:31:54.576Z,18.80
2022-12-22T02:32:54.541Z,17.90
2022-12-22T02:33:54.578Z,17.70
2022-12-22T02:34:54.536Z,17.90
2022-12-22T02:35:54.530Z,18.30
2022-12-22T02:36:54.519Z,17.70
2022-12-22T02:37:54.504Z,18.90
2022-12-22T02:38:54.525Z,18.20
2022-12-22T02:39:54.515Z,17.20
2022-12-22T02:40:54.489Z,15.90
2022-12-22T02:41:54.485Z,15.10
2022-12-22T02:42:54.485Z,15.90
2022-12-22T02:43:54.522Z,15.60
2022-12-22T02:44:54.472Z,15.50
2022-12-22T02:45:54.494Z,16.00
2022-12-22T02:46:54.470Z,14.40
2022-12-22T02:47:54.488Z,14.10
2022-12-22T02:48:54.455Z,13.80
2022-12-22T02:49:54.501Z,13.40
2022-12-22T02:50:54.452Z,13.20
2022-12-22T02:51:54.443Z,12.90
2022-12-22T02:52:54.461Z,12.60
2022-12-22T02:53:54.424Z,13.40
2022-12-22T02:54:54.447Z,12.10
2022-12-22T02:55:54.409Z,12.30
2022-12-22T02:56:54.427Z,12.40
2022-12-22T02:57:54.448Z,11.70
2022-12-22T02:58:54.411Z,11.30
2022-12-22T02:59:54.392Z,10.90
2022-12-22T03:00:54.386Z,10.90
2022-12-22T03:01:54.484Z,10.80
2022-12-22T03:02:54.579Z,10.90
2022-12-22T03:03:55.456Z,10.20
2022-12-22T03:04:54.368Z,9.70
2022-12-22T03:05:54.372Z,10.70
2022-12-22T03:06:54.353Z,9.80
2022-12-22T03:07:54.364Z,9.30
2022-12-22T03:08:54.381Z,9.80
2022-12-22T03:09:54.361Z,9.60
2022-12-22T03:10:54.406Z,8.80
2022-12-22T03:11:54.366Z,9.00
2022-12-22T03:12:54.403Z,8.80
2022-12-22T03:13:54.346Z,7.70
2022-12-22T03:14:54.339Z,8.30
2022-12-22T03:15:54.317Z,8.70
2022-12-22T03:16:54.323Z,8.00
2022-12-22T03:17:54.332Z,8.00
2022-12-22T03:18:55.291Z,8.00
2022-12-22T03:19:54.298Z,7.70
2022-12-22T03:20:54.318Z,7.40
2022-12-22T03:21:55.289Z,7.60
2022-12-22T03:22:54.275Z,7.00
2022-12-22T03:23:54.273Z,7.00
2022-12-22T03:24:54.271Z,7.50
2022-12-22T03:25:54.385Z,6.90
2022-12-22T03:26:54.338Z,7.40
2022-12-22T03:27:54.284Z,7.00
2022-12-22T03:28:54.278Z,7.30
2022-12-22T03:29:54.253Z,7.00
2022-12-22T03:30:54.238Z,6.70
2022-12-22T03:31:54.316Z,7.00
2022-12-22T03:32:54.275Z,7.20
2022-12-22T03:33:54.260Z,6.80
2022-12-22T03:34:54.234Z,6.70
2022-12-22T03:35:54.203Z,6.70
2022-12-22T03:36:54.198Z,6.10
2022-12-22T03:37:54.224Z,6.90
2022-12-22T03:38:54.203Z,5.70
2022-12-22T03:39:54.235Z,5.90
2022-12-22T03:40:54.192Z,6.30
2022-12-22T03:41:54.213Z,5.90
2022-12-22T03:42:54.218Z,5.50
2022-12-22T03:43:54.168Z,5.80
2022-12-22T03:44:54.166Z,5.60
2022-12-22T03:45:55.177Z,6.00
2022-12-22T03:46:54.219Z,6.60
2022-12-22T03:47:54.191Z,5.90
2022-12-22T03:48:54.143Z,6.00
2022-12-22T03:49:54.144Z,5.90
2022-12-22T03:50:54.149Z,5.00
2022-12-22T03:51:54.165Z,5.00
2022-12-22T03:52:54.145Z,4.80
2022-12-22T03:53:54.164Z,4.70
2022-12-22T03:54:54.128Z,4.90
2022-12-22T03:55:54.115Z,5.10
2022-12-22T03:56:54.136Z,5.10
2022-12-22T03:57:54.138Z,5.10
2022-12-22T03:58:54.140Z,5.70
2022-12-22T03:59:54.105Z,4.90
2022-12-22T04:00:54.146Z,4.80
2022-12-22T04:01:54.391Z,4.10
2022-12-22T04:02:54.165Z,4.30
2022-12-22T04:03:54.078Z,3.70
2022-12-22T04:04:54.078Z,4.30
2022-12-22T04:05:54.100Z,3.70
2022-12-22T04:06:54.063Z,4.20
2022-12-22T04:07:54.070Z,4.00
2022-12-22T04:08:54.062Z,3.80
2022-12-22T04:09:54.066Z,3.60
2022-12-22T04:10:54.040Z,3.70
2022-12-22T04:11:54.079Z,3.70
2022-12-22T04:12:54.026Z,3.00
2022-12-22T04:13:54.047Z,2.80
2022-12-22T04:14:54.033Z,2.70
2022-12-22T04:15:54.016Z,2.90
2022-12-22T04:16:54.128Z,2.70
2022-12-22T04:17:54.025Z,2.60
2022-12-22T04:18:54.010Z,2.70
2022-12-22T04:19:54.012Z,2.80
2022-12-22T04:20:54.021Z,2.80
2022-12-22T04:21:54.006Z,2.90
2022-12-22T04:22:53.981Z,3.20
2022-12-22T04:23:53.988Z,2.90
2022-12-22T04:24:54.002Z,3.40
2022-12-22T04:25:54.002Z,3.50
2022-12-22T04:26:53.963Z,3.10
2022-12-22T04:27:53.979Z,3.30
2022-12-22T04:28:54.031Z,3.30
2022-12-22T04:29:53.963Z,3.10
2022-12-22T04:30:53.950Z,2.90
2022-12-22T04:31:54.063Z,3.50
2022-12-22T04:32:53.969Z,3.40
2022-12-22T04:33:53.992Z,3.30
2022-12-22T04:34:53.930Z,3.10
2022-12-22T04:35:53.926Z,3.20
2022-12-22T04:36:53.924Z,3.00
2022-12-22T04:37:54.000Z,2.70
2022-12-22T04:38:53.964Z,3.00
2022-12-22T04:39:53.920Z,3.00
2022-12-22T04:40:53.896Z,3.00
2022-12-22T04:41:53.905Z,2.90
2022-12-22T04:42:53.943Z,2.90
2022-12-22T04:43:53.927Z,2.90
2022-12-22T04:44:53.905Z,2.60
2022-12-22T04:45:53.938Z,2.90
2022-12-22T04:46:53.874Z,3.10
2022-12-22T04:47:53.862Z,2.90
2022-12-22T04:48:59.617Z,3.00
2022-12-22T04:49:55.902Z,3.30
2022-12-22T04:50:53.869Z,3.50
2022-12-22T04:51:53.862Z,3.40
2022-12-22T04:52:53.843Z,3.60
2022-12-22T04:53:53.846Z,3.60
2022-12-22T04:54:53.898Z,3.30
2022-12-22T04:55:53.831Z,3.50
2022-12-22T04:56:53.840Z,3.50
2022-12-22T04:57:53.842Z,3.50
2022-12-22T04:58:53.812Z,3.60
2022-12-22T04:59:53.848Z,3.20
2022-12-22T05:00:53.905Z,3.40
2022-12-22T05:01:53.875Z,3.10
2022-12-22T05:02:53.965Z,3.20
2022-12-22T05:03:53.811Z,3.40
2022-12-22T05:04:53.855Z,3.30
2022-12-22T05:05:54.791Z,3.40
2022-12-22T05:06:53.806Z,3.40
2022-12-22T05:07:53.771Z,3.20
2022-12-22T05:08:53.809Z,3.20
2022-12-22T05:09:53.769Z,3.50
2022-12-22T05:10:53.812Z,3.50
2022-12-22T05:11:53.807Z,3.30
2022-12-22T05:12:53.805Z,3.80
2022-12-22T05:13:53.769Z,3.60
2022-12-22T05:14:53.749Z,3.90
2022-12-22T05:15:53.801Z,3.70
2022-12-22T05:16:53.763Z,3.90
2022-12-22T05:17:53.724Z,4.20
2022-12-22T05:18:53.760Z,4.90
2022-12-22T05:19:53.740Z,4.80
2022-12-22T05:20:53.771Z,4.10
2022-12-22T05:21:53.718Z,4.10
2022-12-22T05:22:53.725Z,4.40
2022-12-22T05:23:53.736Z,4.30
2022-12-22T05:24:53.718Z,4.30
2022-12-22T05:25:53.687Z,4.60
2022-12-22T05:26:53.710Z,4.60
2022-12-22T05:27:53.688Z,3.90
2022-12-22T05:28:53.723Z,4.40
2022-12-22T05:29:53.670Z,4.40
2022-12-22T05:30:53.825Z,3.90
2022-12-22T05:31:53.657Z,4.20
2022-12-22T05:32:53.666Z,3.70
2022-12-22T05:33:53.676Z,3.50
2022-12-22T05:34:53.657Z,4.10
2022-12-22T05:35:53.646Z,3.70
2022-12-22T05:36:53.638Z,3.20
2022-12-22T05:37:53.672Z,3.30
2022-12-22T05:38:53.663Z,3.20
2022-12-22T05:39:53.627Z,3.60
2022-12-22T05:40:58.259Z,2.90
2022-12-22T05:41:55.611Z,3.10
2022-12-22T05:42:53.616Z,3.50
2022-12-22T05:43:53.739Z,3.50
2022-12-22T05:44:53.621Z,2.90
2022-12-22T05:45:53.629Z,3.30
2022-12-22T05:46:53.615Z,3.30
2022-12-22T05:47:53.590Z,3.10
2022-12-22T05:48:53.601Z,3.00
2022-12-22T05:49:53.593Z,3.10
2022-12-22T05:50:53.573Z,3.60
2022-12-22T05:51:53.597Z,3.20
2022-12-22T05:52:53.574Z,2.80
2022-12-22T05:53:53.617Z,3.10
2022-12-22T05:54:53.569Z,3.40
2022-12-22T05:55:53.598Z,3.00
2022-12-22T05:56:53.557Z,3.00
2022-12-22T05:57:53.566Z,3.00
2022-12-22T05:58:53.531Z,3.50
2022-12-22T05:59:54.536Z,3.50
2022-12-22T06:00:53.559Z,3.50
2022-12-22T06:01:53.580Z,3.40
2022-12-22T06:02:53.635Z,3.90
2022-12-22T06:03:59.794Z,3.70
2022-12-22T06:04:55.527Z,3.90
2022-12-22T06:05:53.532Z,4.20
2022-12-22T06:06:53.530Z,4.00
2022-12-22T06:07:53.503Z,4.00
2022-12-22T06:08:53.497Z,4.50
2022-12-22T06:09:53.506Z,4.40
2022-12-22T06:10:53.515Z,5.40
2022-12-22T06:11:53.478Z,5.20
2022-12-22T06:12:53.479Z,6.20
2022-12-22T06:13:53.481Z,6.10
2022-12-22T06:14:53.468Z,6.20
2022-12-22T06:15:53.568Z,7.00
2022-12-22T06:16:53.502Z,7.10
2022-12-22T06:17:53.458Z,7.00
2022-12-22T06:18:53.454Z,7.70
2022-12-22T06:19:53.479Z,7.60
2022-12-22T06:20:53.565Z,8.60
2022-12-22T06:21:53.441Z,9.20
2022-12-22T06:22:53.480Z,9.30
2022-12-22T06:23:53.442Z,9.10
2022-12-22T06:24:53.414Z,8.90
2022-12-22T06:25:53.432Z,9.50
2022-12-22T06:26:53.469Z,10.30
2022-12-22T06:27:53.449Z,10.30
2022-12-22T06:28:53.425Z,9.70
2022-12-22T06:29:53.434Z,9.90
2022-12-22T06:30:53.406Z,9.60
2022-12-22T06:31:53.408Z,9.70
2022-12-22T06:32:53.412Z,10.50
2022-12-22T06:33:53.402Z,9.70
2022-12-22T06:34:53.374Z,9.80
2022-12-22T06:35:58.737Z,9.50
2022-12-22T06:36:55.377Z,9.20
2022-12-22T06:37:53.359Z,10.60
2022-12-22T06:38:53.356Z,10.50
2022-12-22T06:39:53.354Z,10.60
2022-12-22T06:40:53.365Z,10.30
2022-12-22T06:41:53.356Z,10.00
2022-12-22T06:42:53.408Z,11.20
2022-12-22T06:43:53.395Z,10.70
2022-12-22T06:44:53.339Z,10.10
2022-12-22T06:45:53.496Z,10.20
2022-12-22T06:46:53.376Z,11.40
2022-12-22T06:47:53.296Z,10.60
2022-12-22T06:48:53.314Z,9.80
2022-12-22T06:49:53.297Z,8.50
2022-12-22T06:50:53.292Z,9.10
2022-12-22T06:51:53.357Z,9.20
2022-12-22T06:52:53.294Z,9.50
2022-12-22T06:53:53.313Z,10.00
2022-12-22T06:54:53.274Z,9.30
2022-12-22T06:55:53.297Z,9.30
2022-12-22T06:56:53.301Z,9.40
2022-12-22T06:57:53.272Z,8.90
2022-12-22T06:58:53.255Z,8.00
2022-12-22T06:59:57.399Z,8.50
2022-12-22T07:00:54.271Z,8.90
2022-12-22T07:01:53.370Z,8.20
2022-12-22T07:02:53.511Z,8.70
2022-12-22T07:03:53.353Z,8.60
2022-12-22T07:04:53.266Z,8.40
2022-12-22T07:05:53.229Z,8.10
2022-12-22T07:06:53.278Z,8.10
2022-12-22T07:07:53.213Z,7.70
2022-12-22T07:08:53.212Z,8.30
2022-12-22T07:09:53.219Z,7.80
2022-12-22T07:10:54.259Z,7.40
2022-12-22T07:11:53.368Z,7.20
2022-12-22T07:12:53.223Z,6.20
2022-12-22T07:13:53.197Z,6.30
2022-12-22T07:14:53.197Z,6.40
2022-12-22T07:16:00.126Z,6.30
2022-12-22T07:16:55.243Z,6.10
2022-12-22T07:17:53.173Z,5.30
2022-12-22T07:18:53.166Z,5.70
2022-12-22T07:19:53.171Z,5.20
2022-12-22T07:20:53.162Z,5.80
2022-12-22T07:21:53.194Z,5.20
2022-12-22T07:22:53.365Z,5.00
2022-12-22T07:23:53.138Z,5.00
2022-12-22T07:24:53.135Z,4.60
2022-12-22T07:25:53.137Z,4.70
2022-12-22T07:26:53.119Z,4.60
2022-12-22T07:27:53.137Z,4.30
2022-12-22T07:28:53.135Z,4.10
2022-12-22T07:29:53.122Z,3.70
2022-12-22T07:30:53.189Z,3.60
2022-12-22T07:31:53.142Z,3.70
2022-12-22T07:32:53.136Z,3.40
2022-12-22T07:33:53.124Z,3.00
2022-12-22T07:34:53.108Z,2.90
2022-12-22T07:35:53.090Z,2.70
2022-12-22T07:36:53.078Z,2.60
2022-12-22T07:37:53.106Z,2.60
2022-12-22T07:38:53.073Z,2.80
2022-12-22T07:39:53.074Z,2.90
2022-12-22T07:40:55.968Z,2.30
2022-12-22T07:41:54.050Z,2.70
2022-12-22T07:42:53.060Z,2.30
2022-12-22T07:43:53.027Z,1.80
2022-12-22T07:44:53.062Z,2.00
2022-12-22T07:45:53.052Z,1.80
2022-12-22T07:46:53.053Z,1.80
2022-12-22T07:47:53.029Z,1.70
2022-12-22T07:48:53.042Z,1.70
2022-12-22T07:49:53.052Z,2.00
2022-12-22T07:50:53.046Z,1.50
2022-12-22T07:51:53.066Z,1.40
2022-12-22T07:52:53.043Z,1.50
2022-12-22T07:53:53.011Z,1.60
2022-12-22T07:54:53.008Z,1.40
2022-12-22T07:55:52.988Z,1.70
2022-12-22T07:56:52.978Z,1.60
2022-12-22T07:57:53.014Z,1.60
2022-12-22T07:58:53.043Z,1.80
2022-12-22T07:59:52.952Z,1.50
2022-12-22T08:00:52.961Z,1.80
2022-12-22T08:01:53.096Z,2.10
2022-12-22T08:02:53.108Z,1.80
2022-12-22T08:03:52.960Z,1.70
2022-12-22T08:04:52.987Z,1.50
2022-12-22T08:05:52.954Z,1.50
2022-12-22T08:06:52.934Z,1.90
2022-12-22T08:07:52.918Z,1.40
2022-12-22T08:08:52.922Z,1.80
2022-12-22T08:09:52.936Z,1.50
2022-12-22T08:10:52.989Z,1.60
2022-12-22T08:11:52.921Z,1.50
2022-12-22T08:12:53.028Z,1.70
2022-12-22T08:13:59.096Z,1.70
2022-12-22T08:14:54.915Z,1.70
2022-12-22T08:15:52.913Z,1.70
2022-12-22T08:16:52.967Z,1.70
2022-12-22T08:17:52.892Z,1.30
2022-12-22T08:18:52.870Z,1.00
2022-12-22T08:19:52.874Z,1.40
2022-12-22T08:20:53.888Z,1.20
2022-12-22T08:21:53.463Z,1.40
2022-12-22T08:22:52.845Z,1.30
2022-12-22T08:23:52.856Z,1.30
2022-12-22T08:24:52.863Z,1.10
2022-12-22T08:25:52.840Z,1.00
2022-12-22T08:26:52.861Z,0.80
2022-12-22T08:27:52.817Z,0.80
2022-12-22T08:28:52.852Z,0.70
2022-12-22T08:29:52.816Z,0.70
2022-12-22T08:30:52.813Z,0.60
2022-12-22T08:31:52.957Z,0.60
2022-12-22T08:32:52.804Z,0.50
2022-12-22T08:33:52.800Z,0.50
2022-12-22T08:34:52.817Z,0.40
2022-12-22T08:35:52.948Z,0.40
2022-12-22T08:36:52.798Z,0.50
2022-12-22T08:37:52.779Z,0.40
2022-12-22T08:38:53.811Z,0.30
2022-12-22T08:39:52.785Z,0.50
2022-12-22T08:40:52.784Z,0.50
2022-12-22T08:41:52.953Z,0.50
2022-12-22T08:42:52.764Z,0.50
2022-12-22T08:43:52.799Z,0.60
2022-12-22T08:44:52.761Z,0.40
2022-12-22T08:45:52.753Z,0.50
2022-12-22T08:46:52.814Z,0.60
2022-12-22T08:47:52.731Z,0.60
2022-12-22T08:48:52.752Z,0.50
2022-12-22T08:49:52.737Z,0.50
2022-12-22T08:50:52.710Z,0.60
2022-12-22T08:51:52.749Z,0.60
2022-12-22T08:52:52.715Z,0.50
2022-12-22T08:54:07.941Z,0.50
2022-12-22T08:54:54.710Z,0.60
2022-12-22T08:55:52.704Z,0.60
2022-12-22T08:56:52.681Z,0.50
2022-12-22T08:57:56.216Z,0.50
2022-12-22T08:58:53.700Z,0.90
2022-12-22T08:59:52.665Z,0.80
2022-12-22T09:00:52.722Z,0.80
2022-12-22T09:01:52.747Z,0.70
2022-12-22T09:02:52.830Z,0.70
2022-12-22T09:03:52.691Z,0.60
2022-12-22T09:04:52.667Z,0.50
2022-12-22T09:05:52.694Z,0.60
2022-12-22T09:06:52.631Z,0.50
2022-12-22T09:07:52.665Z,0.60
2022-12-22T09:08:52.624Z,0.50
2022-12-22T09:09:52.619Z,0.50
2022-12-22T09:10:52.609Z,0.50
2022-12-22T09:11:52.604Z,0.40
2022-12-22T09:12:52.641Z,0.60
2022-12-22T09:13:52.640Z,0.50
2022-12-22T09:14:52.629Z,0.70
2022-12-22T09:15:52.585Z,0.60
2022-12-22T09:16:52.743Z,0.60
2022-12-22T09:17:52.586Z,0.50
2022-12-22T09:18:52.586Z,0.60
2022-12-22T09:19:52.570Z,0.50
2022-12-22T09:20:52.556Z,0.70
2022-12-22T09:21:52.584Z,0.60
2022-12-22T09:22:52.557Z,0.50
2022-12-22T09:23:52.581Z,0.50
2022-12-22T09:24:52.583Z,0.50
2022-12-22T09:25:52.544Z,0.70
2022-12-22T09:26:52.554Z,0.70
2022-12-22T09:27:52.527Z,0.50
2022-12-22T09:28:52.553Z,0.60
2022-12-22T09:29:52.580Z,0.50
2022-12-22T09:30:52.492Z,0.50
2022-12-22T09:31:52.579Z,0.60
2022-12-22T09:32:52.492Z,0.40
2022-12-22T09:33:52.503Z,0.40
2022-12-22T09:34:52.513Z,0.50
2022-12-22T09:35:52.478Z,0.50
2022-12-22T09:36:52.473Z,0.40
2022-12-22T09:37:52.461Z,0.60
2022-12-22T09:38:52.491Z,0.50
2022-12-22T09:39:52.450Z,0.50
2022-12-22T09:40:52.444Z,0.50
2022-12-22T09:41:52.449Z,0.60
2022-12-22T09:42:52.465Z,0.50
2022-12-22T09:43:52.435Z,0.70
2022-12-22T09:44:52.439Z,0.90
2022-12-22T09:45:52.490Z,1.10
2022-12-22T09:46:52.397Z,1.00
2022-12-22T09:47:53.435Z,1.10
2022-12-22T09:48:52.405Z,1.40
2022-12-22T09:49:52.382Z,1.00
2022-12-22T09:50:52.391Z,1.10
2022-12-22T09:51:52.406Z,0.90
2022-12-22T09:52:52.389Z,0.80
2022-12-22T09:53:52.368Z,1.00
2022-12-22T09:54:52.388Z,0.90
2022-12-22T09:55:52.454Z,0.70
2022-12-22T09:56:52.372Z,0.90
2022-12-22T09:57:52.380Z,0.60
2022-12-22T09:58:52.415Z,0.60
2022-12-22T09:59:52.375Z,0.70
2022-12-22T10:00:52.350Z,0.70
2022-12-22T10:01:52.381Z,0.60
2022-12-22T10:02:52.346Z,0.50
2022-12-22T10:03:58.263Z,0.50
2022-12-22T10:04:54.318Z,0.50
2022-12-22T10:05:52.299Z,0.50
2022-12-22T10:06:52.292Z,0.60
2022-12-22T10:07:52.367Z,0.60
2022-12-22T10:08:52.269Z,0.60
2022-12-22T10:09:52.436Z,0.60
2022-12-22T10:10:53.283Z,0.50
2022-12-22T10:11:52.261Z,0.60
2022-12-22T10:12:52.278Z,0.60
2022-12-22T10:13:52.273Z,0.50
2022-12-22T10:14:52.330Z,0.70
2022-12-22T10:15:52.266Z,0.50
2022-12-22T10:16:52.289Z,0.50
2022-12-22T10:17:52.206Z,0.40
2022-12-22T10:18:52.296Z,0.50
2022-12-22T10:19:52.212Z,0.50
2022-12-22T10:20:52.234Z,0.50
2022-12-22T10:21:52.199Z,0.50
2022-12-22T10:22:52.230Z,0.50
2022-12-22T10:23:52.211Z,0.60
2022-12-22T10:24:52.181Z,0.50
2022-12-22T10:26:26.906Z,0.50
2022-12-22T10:26:54.185Z,0.50
2022-12-22T10:27:52.193Z,0.40
2022-12-22T10:28:52.150Z,0.50
2022-12-22T10:29:52.173Z,0.30
2022-12-22T10:30:52.213Z,0.30
2022-12-22T10:31:52.205Z,0.50
2022-12-22T10:32:52.129Z,0.40
2022-12-22T10:33:52.132Z,3.20
2022-12-22T10:34:52.110Z,4.00
2022-12-22T10:35:52.099Z,4.90
2022-12-22T10:36:52.196Z,10.00
2022-12-22T10:37:52.116Z,5.60
2022-12-22T10:38:52.146Z,1.80
2022-12-22T10:39:52.073Z,0.70
2022-12-22T10:40:55.265Z,0.60
2022-12-22T10:41:54.081Z,0.50
2022-12-22T10:42:52.070Z,0.70
2022-12-22T10:43:52.121Z,0.80
2022-12-22T10:44:52.070Z,0.60
2022-12-22T10:45:52.173Z,0.50
2022-12-22T10:46:52.072Z,0.50
2022-12-22T10:47:52.060Z,0.50
2022-12-22T10:48:52.019Z,0.60
2022-12-22T10:50:36.720Z,0.40
2022-12-22T10:51:37.931Z,0.30
2022-12-22T10:52:37.874Z,0.30
2022-12-22T10:53:37.969Z,0.40
2022-12-22T10:54:37.890Z,0.40
2022-12-22T10:55:37.939Z,0.30
2022-12-22T10:56:37.873Z,0.30
2022-12-22T10:57:38.824Z,0.30
2022-12-22T10:58:37.868Z,0.30
2022-12-22T10:59:37.871Z,0.30
2022-12-22T11:00:37.860Z,0.50
2022-12-22T11:01:37.946Z,0.40
2022-12-22T11:02:38.381Z,0.40
2022-12-22T11:03:37.934Z,0.50
2022-12-22T11:04:37.833Z,0.50
2022-12-22T11:05:37.791Z,0.50
2022-12-22T11:06:37.797Z,0.50
2022-12-22T11:07:37.785Z,0.50
2022-12-22T11:08:37.777Z,0.40
2022-12-22T11:09:37.860Z,0.30
2022-12-22T11:10:37.820Z,0.50
2022-12-22T11:11:37.750Z,0.50
2022-12-22T11:12:37.736Z,0.50
2022-12-22T11:13:37.762Z,0.50
2022-12-22T11:14:37.758Z,0.50
2022-12-22T11:15:38.733Z,0.60
2022-12-22T11:16:37.759Z,0.40
2022-12-22T11:17:37.738Z,0.40
2022-12-22T11:18:37.715Z,0.40
2022-12-22T11:19:37.731Z,0.30
2022-12-22T11:20:37.999Z,0.40
2022-12-22T11:21:37.690Z,0.60
2022-12-22T11:22:37.695Z,0.70
2022-12-22T11:23:37.680Z,0.60
2022-12-22T11:24:37.708Z,0.50
2022-12-22T11:25:37.678Z,0.40
2022-12-22T11:26:37.642Z,0.60
2022-12-22T11:27:44.075Z,0.40
2022-12-22T11:28:39.675Z,0.60
2022-12-22T11:29:37.644Z,0.50
2022-12-22T11:30:37.662Z,0.50
2022-12-22T11:31:37.631Z,0.40
2022-12-22T11:32:37.634Z,0.50
2022-12-22T11:33:37.645Z,0.50
2022-12-22T11:34:38.635Z,0.50
2022-12-22T11:35:37.621Z,0.60
2022-12-22T11:36:37.613Z,0.50
2022-12-22T11:37:37.604Z,0.60
2022-12-22T11:38:37.595Z,0.40
2022-12-22T11:39:37.612Z,0.50
2022-12-22T11:40:37.621Z,0.40
2022-12-22T11:41:37.576Z,0.40
2022-12-22T11:42:37.595Z,0.40
2022-12-22T11:43:37.543Z,0.60
2022-12-22T11:44:37.548Z,0.40
2022-12-22T11:45:42.901Z,0.40
2022-12-22T11:46:39.641Z,0.50
2022-12-22T11:47:37.509Z,0.50
2022-12-22T11:48:37.521Z,0.60
2022-12-22T11:49:37.566Z,1.20
2022-12-22T11:51:00.075Z,0.70
2022-12-22T11:51:38.507Z,0.60
2022-12-22T11:52:37.490Z,0.50
2022-12-22T11:53:37.493Z,0.50
2022-12-22T11:54:37.486Z,0.60
2022-12-22T11:55:37.529Z,0.70
2022-12-22T11:56:37.478Z,0.40
2022-12-22T11:57:37.470Z,0.50
2022-12-22T11:58:37.584Z,0.50
2022-12-22T11:59:37.569Z,0.60
2022-12-22T12:01:04.233Z,0.50
2022-12-22T12:01:39.572Z,0.60
2022-12-22T12:02:37.466Z,0.70
2022-12-22T12:03:37.527Z,0.70
2022-12-22T12:04:37.505Z,0.80
2022-12-22T12:05:37.462Z,0.80
2022-12-22T12:06:40.609Z,0.70
2022-12-22T12:07:37.429Z,0.60
2022-12-22T12:08:38.405Z,0.50
2022-12-22T12:09:37.427Z,0.40
2022-12-22T12:10:37.385Z,0.50
2022-12-22T12:11:37.416Z,0.60
2022-12-22T12:12:37.380Z,0.50
2022-12-22T12:13:37.834Z,0.50
2022-12-22T12:14:38.365Z,0.70
2022-12-22T12:15:37.425Z,0.70
2022-12-22T12:16:37.469Z,0.90
2022-12-22T12:17:37.348Z,0.50
2022-12-22T12:18:37.350Z,0.60
2022-12-22T12:19:37.348Z,0.60
2022-12-22T12:20:37.344Z,0.60
2022-12-22T12:21:37.346Z,0.80
2022-12-22T12:22:37.331Z,0.60
2022-12-22T12:23:37.319Z,0.70
2022-12-22T12:24:37.298Z,0.80
2022-12-22T12:25:37.332Z,0.80
2022-12-22T12:26:37.310Z,0.80
2022-12-22T12:27:37.271Z,0.80
2022-12-22T12:28:37.276Z,0.80
2022-12-22T12:29:38.104Z,0.80
2022-12-22T12:30:38.906Z,0.70
2022-12-22T12:31:38.334Z,0.70
2022-12-22T12:32:37.271Z,0.80
2022-12-22T12:33:37.258Z,0.70
2022-12-22T12:34:37.256Z,0.70
2022-12-22T12:35:37.220Z,0.80
2022-12-22T12:36:37.205Z,0.70
2022-12-22T12:37:37.224Z,0.90
2022-12-22T12:39:06.965Z,0.80
2022-12-22T12:39:39.239Z,0.90
2022-12-22T12:40:37.204Z,1.00
2022-12-22T12:41:37.191Z,1.00
2022-12-22T12:42:37.173Z,0.80
2022-12-22T12:43:37.307Z,0.80
2022-12-22T12:44:37.218Z,0.80
2022-12-22T12:45:37.147Z,0.80
2022-12-22T12:46:37.163Z,0.90
2022-12-22T12:47:37.144Z,0.80
2022-12-22T12:48:37.119Z,0.80
2022-12-22T12:49:37.233Z,0.80
2022-12-22T12:50:37.146Z,0.70
2022-12-22T12:51:37.133Z,0.80
2022-12-22T12:52:37.124Z,0.80
2022-12-22T12:53:37.110Z,0.90
2022-12-22T12:54:37.139Z,0.70
2022-12-22T12:55:37.236Z,0.80
2022-12-22T12:56:37.088Z,0.80
2022-12-22T12:57:37.093Z,0.60
2022-12-22T12:58:37.083Z,0.80
2022-12-22T12:59:37.077Z,0.70
2022-12-22T13:00:39.487Z,0.60
2022-12-22T13:01:38.226Z,0.90
2022-12-22T13:02:37.258Z,0.90
2022-12-22T13:04:02.446Z,1.60
2022-12-22T13:04:39.146Z,2.60
2022-12-22T13:05:37.025Z,1.10
2022-12-22T13:06:37.060Z,0.80
2022-12-22T13:07:37.016Z,0.70
2022-12-22T13:08:36.998Z,0.80
2022-12-22T13:09:50.671Z,0.70
2022-12-22T13:10:38.980Z,0.70
2022-12-22T13:12:38.990Z,0.80
2022-12-22T13:13:36.994Z,0.70